createdAt,value
2023-05-04T00:02:06.058Z,22.73
2023-05-04T00:04:32.536Z,19.95
2023-05-04T00:06:59.150Z,17.42
2023-05-04T00:09:25.856Z,18.98
2023-05-04T00:11:52.323Z,15.80
2023-05-04T00:14:18.753Z,22.40
2023-05-04T00:16:45.343Z,22.50
2023-05-04T00:19:13.866Z,21.83
2023-05-04T00:21:40.320Z,20.42
2023-05-04T00:24:06.823Z,23.92
2023-05-04T00:26:33.314Z,23.98
2023-05-04T00:28:59.757Z,21.85
2023-05-04T00:31:26.279Z,22.10
2023-05-04T00:33:53.241Z,20.70
2023-05-04T00:36:19.730Z,19.13
2023-05-04T00:38:51.412Z,18.15
2023-05-04T00:41:18.745Z,16.25
2023-05-04T00:43:45.675Z,17.83
2023-05-04T00:46:13.122Z,25.40
2023-05-04T00:48:41.040Z,17.90
2023-05-04T00:51:10.961Z,23.60
2023-05-04T00:53:38.962Z,13.98
2023-05-04T00:56:07.119Z,17.27
2023-05-04T00:58:34.213Z,17.23
2023-05-04T01:01:01.333Z,23.17
2023-05-04T01:03:28.464Z,18.23
2023-05-04T01:06:16.626Z,17.05
2023-05-04T01:08:50.506Z,19.75
2023-05-04T01:11:33.794Z,18.08
2023-05-04T01:14:02.047Z,18.23
2023-05-04T01:16:29.466Z,11.35
2023-05-04T01:18:55.972Z,21.08
2023-05-04T01:21:22.475Z,19.60
2023-05-04T01:23:49.020Z,19.55
2023-05-04T01:26:24.799Z,20.33
2023-05-04T01:28:51.232Z,17.85
2023-05-04T01:31:22.675Z,16.30
2023-05-04T01:33:52.832Z,22.50
2023-05-04T01:36:23.011Z,17.95
2023-05-04T01:38:53.235Z,16.88
2023-05-04T01:41:19.674Z,22.33
2023-05-04T01:43:46.140Z,25.65
2023-05-04T01:46:12.800Z,27.10
2023-05-04T01:48:39.290Z,19.85
2023-05-04T01:51:05.893Z,18.45
2023-05-04T01:53:32.374Z,24.95
2023-05-04T01:55:58.875Z,24.92
2023-05-04T01:58:25.319Z,24.65
2023-05-04T02:00:52.789Z,21.02
2023-05-04T02:03:19.462Z,26.23
2023-05-04T02:05:46.122Z,19.77
2023-05-04T02:08:12.600Z,21.00
2023-05-04T02:10:39.128Z,26.13
2023-05-04T02:13:05.661Z,24.45
2023-05-04T02:15:32.206Z,20.30
2023-05-04T02:17:58.728Z,23.02
2023-05-04T02:20:25.347Z,20.92
2023-05-04T02:22:51.815Z,22.00
2023-05-04T02:25:18.510Z,20.55
2023-05-04T02:27:44.972Z,24.50
2023-05-04T02:30:12.392Z,21.15
2023-05-04T02:32:38.900Z,22.88
2023-05-04T02:35:05.861Z,30.00
2023-05-04T02:37:32.365Z,30.58
2023-05-04T02:39:58.857Z,23.63
2023-05-04T02:42:25.361Z,16.77
2023-05-04T02:44:51.850Z,18.67
2023-05-04T02:47:18.482Z,20.83
2023-05-04T02:49:44.950Z,23.63
2023-05-04T02:52:11.398Z,23.98
2023-05-04T02:54:37.876Z,22.50
2023-05-04T02:57:04.912Z,27.15
2023-05-04T02:59:31.377Z,19.15
2023-05-04T03:01:57.852Z,24.73
2023-05-04T03:04:24.424Z,21.92
2023-05-04T03:06:51.113Z,26.33
2023-05-04T03:09:17.633Z,25.30
2023-05-04T03:11:44.513Z,20.05
2023-05-04T03:14:11.135Z,21.45
2023-05-04T03:16:37.661Z,24.20
2023-05-04T03:19:04.179Z,27.98
2023-05-04T03:21:30.697Z,26.13
2023-05-04T03:23:58.763Z,22.60
2023-05-04T03:26:25.421Z,25.02
2023-05-04T03:28:52.832Z,21.95
2023-05-04T03:31:19.339Z,22.48
2023-05-04T03:33:49.304Z,36.45
2023-05-04T03:36:16.138Z,32.70
2023-05-04T03:38:43.313Z,29.02
2023-05-04T03:41:10.550Z,24.33
2023-05-04T03:43:37.045Z,38.25
2023-05-04T03:46:03.592Z,31.95
2023-05-04T03:48:30.253Z,24.42
2023-05-04T03:50:57.261Z,26.77
2023-05-04T03:53:23.743Z,31.33
2023-05-04T03:55:50.473Z,23.05
2023-05-04T03:58:17.088Z,29.67
2023-05-04T04:00:43.662Z,25.20
2023-05-04T04:03:14.694Z,31.23
2023-05-04T04:05:41.333Z,31.42
2023-05-04T04:08:07.928Z,30.30
2023-05-04T04:10:35.042Z,26.88
2023-05-04T04:13:01.542Z,26.73
2023-05-04T04:15:28.391Z,30.05
2023-05-04T04:17:54.931Z,37.38
2023-05-04T04:20:21.449Z,28.30
2023-05-04T04:22:47.947Z,34.28
2023-05-04T04:25:14.399Z,24.27
2023-05-04T04:27:40.854Z,28.45
2023-05-04T04:30:08.055Z,34.17
2023-05-04T04:32:34.588Z,36.38
2023-05-04T04:35:01.175Z,34.63
2023-05-04T04:37:27.642Z,39.47
2023-05-04T04:39:54.151Z,32.17
2023-05-04T04:42:20.627Z,32.75
2023-05-04T04:44:47.108Z,42.15
2023-05-04T04:47:13.549Z,42.95
2023-05-04T04:49:40.018Z,31.75
2023-05-04T04:52:06.474Z,31.40
2023-05-04T04:54:32.957Z,39.50
2023-05-04T04:56:59.505Z,29.65
2023-05-04T04:59:26.086Z,47.50
2023-05-04T05:01:52.523Z,33.22
2023-05-04T05:04:19.173Z,35.17
2023-05-04T05:06:45.731Z,34.83
2023-05-04T05:09:12.208Z,31.77
2023-05-04T05:11:38.666Z,35.58
2023-05-04T05:14:05.206Z,38.80
2023-05-04T05:16:31.732Z,39.33
2023-05-04T05:18:58.324Z,36.63
2023-05-04T05:21:24.867Z,32.65
2023-05-04T05:23:51.367Z,24.90
2023-05-04T05:26:17.814Z,30.75
2023-05-04T05:28:44.336Z,32.15
2023-05-04T05:31:10.858Z,32.38
2023-05-04T05:33:40.962Z,34.17
2023-05-04T05:36:07.762Z,33.78
2023-05-04T05:38:34.206Z,26.60
2023-05-04T05:41:00.730Z,38.15
2023-05-04T05:43:27.168Z,32.67
2023-05-04T05:45:53.889Z,34.63
2023-05-04T05:48:20.345Z,26.70
2023-05-04T05:50:46.886Z,31.85
2023-05-04T05:53:13.350Z,34.33
2023-05-04T05:55:39.815Z,35.10
2023-05-04T05:58:06.288Z,34.22
2023-05-04T06:00:32.810Z,30.00
2023-05-04T06:02:59.391Z,36.33
2023-05-04T06:05:26.013Z,28.98
2023-05-04T06:07:52.447Z,27.83
2023-05-04T06:10:18.971Z,31.20
2023-05-04T06:12:45.512Z,29.10
2023-05-04T06:15:12.021Z,34.08
2023-05-04T06:17:38.559Z,28.85
2023-05-04T06:20:08.981Z,27.38
2023-05-04T06:22:35.554Z,30.42
2023-05-04T06:25:05.277Z,27.02
2023-05-04T06:27:34.395Z,38.03
2023-05-04T06:30:00.861Z,26.20
2023-05-04T06:32:27.705Z,32.42
2023-05-04T06:34:55.004Z,32.30
2023-05-04T06:37:21.864Z,30.13
2023-05-04T06:39:48.385Z,31.38
2023-05-04T06:42:16.016Z,33.97
2023-05-04T06:44:42.527Z,24.90
2023-05-04T06:47:08.988Z,30.30
2023-05-04T06:49:35.836Z,31.92
2023-05-04T06:52:02.334Z,28.60
2023-05-04T06:54:28.767Z,27.70
2023-05-04T06:56:55.226Z,36.40
2023-05-04T06:59:21.679Z,28.92
2023-05-04T07:01:48.965Z,31.67
2023-05-04T07:04:15.959Z,29.23
2023-05-04T07:06:45.234Z,32.63
2023-05-04T07:09:11.674Z,27.52
2023-05-04T07:11:38.187Z,27.30
2023-05-04T07:14:23.133Z,30.90
2023-05-04T07:17:09.978Z,29.70
2023-05-04T07:19:56.771Z,32.00
2023-05-04T07:22:43.638Z,28.50
2023-05-04T07:25:30.481Z,26.08
2023-05-04T07:28:17.254Z,33.00
2023-05-04T07:31:04.484Z,28.83
2023-05-04T07:33:51.329Z,28.73
2023-05-04T07:36:38.118Z,39.20
2023-05-04T07:39:24.874Z,24.15
2023-05-04T07:42:11.900Z,24.60
2023-05-04T07:44:58.770Z,26.35
2023-05-04T07:47:45.628Z,29.40
2023-05-04T07:50:33.640Z,23.55
2023-05-04T07:53:20.486Z,25.60
2023-05-04T07:56:09.037Z,24.17
2023-05-04T07:58:55.948Z,31.85
2023-05-04T08:01:44.140Z,24.88
2023-05-04T08:04:31.034Z,32.15
2023-05-04T08:07:17.896Z,26.27
2023-05-04T08:10:05.355Z,23.92
2023-05-04T08:12:52.347Z,27.92
2023-05-04T08:15:39.180Z,22.38
2023-05-04T08:18:26.011Z,26.35
2023-05-04T08:21:12.832Z,21.98
2023-05-04T08:23:59.687Z,26.42
2023-05-04T08:26:52.640Z,26.40
2023-05-04T08:29:50.852Z,30.40
2023-05-04T08:32:37.653Z,24.83
2023-05-04T08:35:24.507Z,29.48
2023-05-04T08:38:11.350Z,22.52
2023-05-04T08:41:00.926Z,25.45
2023-05-04T08:43:47.752Z,19.30
2023-05-04T08:46:34.922Z,21.30
2023-05-04T08:49:24.174Z,26.35
2023-05-04T08:52:11.666Z,19.20
2023-05-04T08:54:59.107Z,23.45
2023-05-04T08:57:46.323Z,24.63
2023-05-04T09:00:33.893Z,25.85
2023-05-04T09:03:21.365Z,23.88
2023-05-04T09:06:09.345Z,24.88
2023-05-04T09:08:56.170Z,22.08
2023-05-04T09:11:43.488Z,22.65
2023-05-04T09:14:34.836Z,31.30
2023-05-04T09:17:21.679Z,20.98
2023-05-04T09:20:09.045Z,22.25
2023-05-04T09:23:06.139Z,27.00
2023-05-04T09:25:54.758Z,21.30
2023-05-04T09:28:41.605Z,18.23
2023-05-04T09:31:28.518Z,21.75
2023-05-04T09:34:16.181Z,22.10
2023-05-04T09:37:03.864Z,20.83
2023-05-04T09:39:59.646Z,20.52
2023-05-04T09:42:56.635Z,17.45
2023-05-04T09:45:45.068Z,16.13
2023-05-04T09:48:32.133Z,21.05
2023-05-04T09:51:20.129Z,20.90
2023-05-04T09:54:06.978Z,20.33
2023-05-04T09:56:59.891Z,21.63
2023-05-04T09:59:46.716Z,19.88
2023-05-04T10:02:33.906Z,18.20
2023-05-04T10:05:20.928Z,25.10
2023-05-04T10:08:08.747Z,22.30
2023-05-04T10:10:57.297Z,15.25
2023-05-04T10:13:45.872Z,14.98
2023-05-04T10:16:35.867Z,16.25
2023-05-04T10:19:29.558Z,16.45
2023-05-04T10:22:38.349Z,17.38
2023-05-04T10:26:03.122Z,17.08
2023-05-04T10:28:56.650Z,18.23
2023-05-04T10:31:44.097Z,16.52
2023-05-04T10:34:35.146Z,16.73
2023-05-04T10:37:22.012Z,14.60
2023-05-04T10:40:09.112Z,18.55
2023-05-04T10:42:55.931Z,18.13
2023-05-04T10:45:42.910Z,17.10
2023-05-04T10:48:34.112Z,18.50
2023-05-04T10:51:24.314Z,17.65
2023-05-04T10:54:17.874Z,19.97
2023-05-04T10:57:09.619Z,16.27
2023-05-04T10:59:59.380Z,19.25
2023-05-04T11:02:46.548Z,17.58
2023-05-04T11:05:47.254Z,16.13
2023-05-04T11:08:34.045Z,13.30
2023-05-04T11:11:21.093Z,18.13
2023-05-04T11:14:08.113Z,18.02
2023-05-04T11:17:27.705Z,13.38
2023-05-04T11:20:26.557Z,14.05
2023-05-04T11:23:16.549Z,15.07
2023-05-04T11:26:07.478Z,12.52
2023-05-04T11:28:55.455Z,16.45
2023-05-04T11:31:42.343Z,14.50
2023-05-04T11:34:29.123Z,16.15
2023-05-04T11:37:15.984Z,13.00
2023-05-04T11:40:07.921Z,18.00
2023-05-04T11:42:57.460Z,13.77
2023-05-04T11:45:47.145Z,15.88
2023-05-04T11:48:35.526Z,14.85
2023-05-04T11:51:23.312Z,17.70
2023-05-04T11:54:19.529Z,15.18
2023-05-04T11:57:06.338Z,12.98
2023-05-04T11:59:53.129Z,18.25
2023-05-04T12:02:40.097Z,17.73
2023-05-04T12:05:27.198Z,19.23
2023-05-04T12:08:23.223Z,12.80
2023-05-04T12:11:14.286Z,13.85
2023-05-04T12:14:11.502Z,16.17
2023-05-04T12:16:58.317Z,12.45
2023-05-04T12:19:49.421Z,14.20
2023-05-04T12:22:36.252Z,12.90
2023-05-04T12:25:23.804Z,12.32
2023-05-04T12:28:10.590Z,14.52
2023-05-04T12:30:57.421Z,11.38
2023-05-04T12:33:44.531Z,11.05
2023-05-04T12:36:31.318Z,14.07
2023-05-04T12:39:18.125Z,14.73
2023-05-04T12:42:05.032Z,14.18
2023-05-04T12:44:51.815Z,13.88
2023-05-04T12:47:38.619Z,16.52
2023-05-04T12:50:25.455Z,8.70
2023-05-04T12:53:12.518Z,14.45
2023-05-04T12:56:00.300Z,13.18
2023-05-04T12:58:47.081Z,15.95
2023-05-04T13:01:33.950Z,16.65
2023-05-04T13:04:20.816Z,19.17
2023-05-04T13:07:07.655Z,13.13
2023-05-04T13:09:54.480Z,18.92
2023-05-04T13:12:41.279Z,14.10
2023-05-04T13:15:28.092Z,9.90
2023-05-04T13:18:14.910Z,14.27
2023-05-04T13:21:01.713Z,14.65
2023-05-04T13:23:48.566Z,13.02
2023-05-04T13:26:35.431Z,14.13
2023-05-04T13:29:22.217Z,14.60
2023-05-04T13:32:09.041Z,12.07
2023-05-04T13:34:55.847Z,10.77
2023-05-04T13:37:42.666Z,16.77
2023-05-04T13:40:29.496Z,13.50
2023-05-04T13:43:16.412Z,15.35
2023-05-04T13:46:04.092Z,13.82
2023-05-04T13:48:51.036Z,13.77
2023-05-04T13:51:38.078Z,15.77
2023-05-04T13:54:24.961Z,11.63
2023-05-04T13:57:11.786Z,13.20
2023-05-04T14:00:06.993Z,12.65
2023-05-04T14:03:00.116Z,11.55
2023-05-04T14:05:47.164Z,11.82
2023-05-04T14:08:33.934Z,9.15
2023-05-04T14:11:20.713Z,17.98
2023-05-04T14:14:08.247Z,11.32
2023-05-04T14:16:55.234Z,14.23
2023-05-04T14:19:42.021Z,11.23
2023-05-04T14:22:28.812Z,11.25
2023-05-04T14:25:15.638Z,14.73
2023-05-04T14:28:02.461Z,12.00
2023-05-04T14:30:50.196Z,12.80
2023-05-04T14:33:39.929Z,15.50
2023-05-04T14:36:26.742Z,13.00
2023-05-04T14:39:13.577Z,17.33
2023-05-04T14:42:00.342Z,12.50
2023-05-04T14:44:47.186Z,11.65
2023-05-04T14:47:34.243Z,12.43
2023-05-04T14:50:21.381Z,17.85
2023-05-04T14:53:08.195Z,11.75
2023-05-04T14:55:55.018Z,18.00
2023-05-04T14:58:41.774Z,18.25
2023-05-04T15:01:28.624Z,13.90
2023-05-04T15:04:15.522Z,14.77
2023-05-04T15:07:02.894Z,15.15
2023-05-04T15:09:49.702Z,16.08
2023-05-04T15:12:36.568Z,15.82
2023-05-04T15:15:23.363Z,17.92
2023-05-04T15:18:10.274Z,16.42
2023-05-04T15:20:57.182Z,15.77
2023-05-04T15:23:44.013Z,20.98
2023-05-04T15:26:30.830Z,18.08
2023-05-04T15:29:17.673Z,13.27
2023-05-04T15:32:04.933Z,14.95
2023-05-04T15:35:04.691Z,17.35
2023-05-04T15:37:52.901Z,14.70
2023-05-04T15:40:39.796Z,15.13
2023-05-04T15:43:26.683Z,15.55
2023-05-04T15:46:13.631Z,16.38
2023-05-04T15:49:00.532Z,15.65
2023-05-04T15:51:47.343Z,22.40
2023-05-04T15:54:34.112Z,14.85
2023-05-04T15:57:20.904Z,18.05
2023-05-04T16:00:08.386Z,18.58
2023-05-04T16:02:55.628Z,19.65
2023-05-04T16:05:42.518Z,17.58
2023-05-04T16:08:29.321Z,12.80
2023-05-04T16:11:16.966Z,14.63
2023-05-04T16:14:03.752Z,20.77
2023-05-04T16:16:50.631Z,16.63
2023-05-04T16:19:37.511Z,21.00
2023-05-04T16:22:24.311Z,16.42
2023-05-04T16:25:11.522Z,19.75
2023-05-04T16:27:58.706Z,18.60
2023-05-04T16:30:45.712Z,22.17
2023-05-04T16:33:32.594Z,27.35
2023-05-04T16:36:19.392Z,26.63
2023-05-04T16:39:06.224Z,27.45
2023-05-04T16:41:53.072Z,24.15
2023-05-04T16:44:39.871Z,23.38
2023-05-04T16:47:26.670Z,28.08
2023-05-04T16:50:14.309Z,24.52
2023-05-04T16:53:01.382Z,28.92
2023-05-04T16:55:48.178Z,21.85
2023-05-04T16:58:35.014Z,28.90
2023-05-04T17:01:21.817Z,27.63
2023-05-04T17:04:09.081Z,28.67
2023-05-04T17:06:55.911Z,23.73
2023-05-04T17:09:42.718Z,24.88
2023-05-04T17:12:29.774Z,23.52
2023-05-04T17:15:16.606Z,23.35
2023-05-04T17:18:03.562Z,35.92
2023-05-04T17:20:50.382Z,24.38
2023-05-04T17:23:37.249Z,22.65
2023-05-04T17:26:24.120Z,25.25
2023-05-04T17:29:10.986Z,25.92
2023-05-04T17:31:57.810Z,27.00
2023-05-04T17:34:44.608Z,26.15
2023-05-04T17:37:31.467Z,26.20
2023-05-04T17:40:18.347Z,24.38
2023-05-04T17:43:05.221Z,23.58
2023-05-04T17:45:54.255Z,25.35
2023-05-04T17:48:42.471Z,31.52
2023-05-04T17:51:29.311Z,27.13
2023-05-04T17:54:16.821Z,25.83
2023-05-04T17:57:03.701Z,23.67
2023-05-04T17:59:50.609Z,28.63
2023-05-04T18:02:37.532Z,27.52
2023-05-04T18:05:24.458Z,31.88
2023-05-04T18:08:11.731Z,30.13
2023-05-04T18:10:58.542Z,28.02
2023-05-04T18:13:45.351Z,30.67
2023-05-04T18:16:36.162Z,25.63
2023-05-04T18:19:23.072Z,31.52
2023-05-04T18:22:09.917Z,30.33
2023-05-04T18:24:56.738Z,28.17
2023-05-04T18:27:43.872Z,27.92
2023-05-04T18:30:30.715Z,27.83
2023-05-04T18:33:17.553Z,29.02
2023-05-04T18:36:04.927Z,35.78
2023-05-04T18:38:51.713Z,30.08
2023-05-04T18:41:38.570Z,32.25
2023-05-04T18:44:35.532Z,31.55
2023-05-04T18:47:22.543Z,35.95
2023-05-04T18:50:09.993Z,39.53
2023-05-04T18:52:56.920Z,100.13
2023-05-04T18:55:43.751Z,62.05
2023-05-04T18:58:31.303Z,77.55
2023-05-04T19:01:18.638Z,33.25
2023-05-04T19:04:05.582Z,29.63
2023-05-04T19:06:52.400Z,29.90
2023-05-04T19:09:39.264Z,31.83
2023-05-04T19:12:26.177Z,30.52
2023-05-04T19:15:13.007Z,31.83
2023-05-04T19:18:00.448Z,31.00
2023-05-04T19:20:47.366Z,32.15
2023-05-04T19:23:34.202Z,27.70
2023-05-04T19:26:21.021Z,29.80
2023-05-04T19:29:07.848Z,29.98
2023-05-04T19:31:54.874Z,34.50
2023-05-04T19:34:42.993Z,37.00
2023-05-04T19:37:29.867Z,30.85
2023-05-04T19:40:16.662Z,29.08
2023-05-04T19:43:03.478Z,34.72
2023-05-04T19:45:50.314Z,30.20
2023-05-04T19:48:38.598Z,30.52
2023-05-04T19:51:25.442Z,35.53
2023-05-04T19:54:12.289Z,35.40
2023-05-04T19:56:59.318Z,37.05
2023-05-04T19:59:47.260Z,29.77
2023-05-04T20:02:34.302Z,39.10
2023-05-04T20:05:21.248Z,36.90
2023-05-04T20:08:08.163Z,39.08
2023-05-04T20:10:54.974Z,31.83
2023-05-04T20:13:41.793Z,36.65
2023-05-04T20:16:28.674Z,31.10
2023-05-04T20:19:16.056Z,39.35
2023-05-04T20:22:03.066Z,30.70
2023-05-04T20:24:49.957Z,35.53
2023-05-04T20:27:36.798Z,31.55
2023-05-04T20:30:23.636Z,36.38
2023-05-04T20:33:10.504Z,32.55
2023-05-04T20:35:57.329Z,32.50
2023-05-04T20:38:44.188Z,33.53
2023-05-04T20:41:30.966Z,33.75
2023-05-04T20:44:17.773Z,35.22
2023-05-04T20:47:04.589Z,36.83
2023-05-04T20:49:51.446Z,34.20
2023-05-04T20:52:38.357Z,31.70
2023-05-04T20:55:25.270Z,32.55
2023-05-04T20:58:12.137Z,32.17
2023-05-04T21:01:05.774Z,36.35
2023-05-04T21:03:53.023Z,32.13
2023-05-04T21:06:39.918Z,34.05
2023-05-04T21:09:26.740Z,32.38
2023-05-04T21:12:13.525Z,37.95
2023-05-04T21:15:00.321Z,36.53
2023-05-04T21:17:47.161Z,29.95
2023-05-04T21:20:34.031Z,30.50
2023-05-04T21:23:20.840Z,35.95
2023-05-04T21:26:07.676Z,35.28
2023-05-04T21:28:54.488Z,29.67
2023-05-04T21:31:41.561Z,32.38
2023-05-04T21:34:28.547Z,38.30
2023-05-04T21:37:15.301Z,31.98
2023-05-04T21:40:02.129Z,31.60
2023-05-04T21:42:48.937Z,32.45
2023-05-04T21:45:35.741Z,30.05
2023-05-04T21:48:22.561Z,31.95
2023-05-04T21:51:09.463Z,25.30
2023-05-04T21:53:56.236Z,25.98
2023-05-04T21:56:43.040Z,28.50
2023-05-04T21:59:29.874Z,29.60
2023-05-04T22:02:16.653Z,21.67
2023-05-04T22:05:03.491Z,29.65
2023-05-04T22:07:50.437Z,34.30
2023-05-04T22:10:37.454Z,29.00
2023-05-04T22:13:24.444Z,33.85
2023-05-04T22:16:11.274Z,34.20
2023-05-04T22:18:58.160Z,28.55
2023-05-04T22:21:44.978Z,34.85
2023-05-04T22:24:31.808Z,27.67
2023-05-04T22:27:18.639Z,27.45
2023-05-04T22:30:06.633Z,30.20
2023-05-04T22:32:53.867Z,31.20
2023-05-04T22:35:40.732Z,35.67
2023-05-04T22:38:27.517Z,28.98
2023-05-04T22:41:14.318Z,32.08
2023-05-04T22:44:01.099Z,26.75
2023-05-04T22:46:48.599Z,23.33
2023-05-04T22:49:35.382Z,30.48
2023-05-04T22:52:23.022Z,22.80
2023-05-04T22:55:09.994Z,25.15
2023-05-04T22:57:56.806Z,21.13
2023-05-04T23:00:43.617Z,21.02
2023-05-04T23:03:30.495Z,22.77
2023-05-04T23:06:17.321Z,28.50
2023-05-04T23:09:04.451Z,24.23
2023-05-04T23:11:54.406Z,24.75
2023-05-04T23:14:41.629Z,23.35
2023-05-04T23:17:28.482Z,23.55
2023-05-04T23:20:15.327Z,23.67
2023-05-04T23:23:02.125Z,23.98
2023-05-04T23:25:48.935Z,21.70
2023-05-04T23:28:35.920Z,23.25
2023-05-04T23:31:22.766Z,14.25
2023-05-04T23:34:09.586Z,15.73
2023-05-04T23:36:56.368Z,19.85
2023-05-04T23:39:45.720Z,19.77
2023-05-04T23:42:32.513Z,17.48
2023-05-04T23:45:19.468Z,17.88
2023-05-04T23:48:06.424Z,11.93
2023-05-04T23:50:54.227Z,13.57
2023-05-04T23:53:41.072Z,15.25
2023-05-04T23:56:27.923Z,10.95
2023-05-04T23:59:14.757Z,11.70
